sensor_id;sensor_type;location;lat;lon;timestamp;temperature;humidity
49901;DHT22;35789;48.414;12.768;2023-07-09T00:00:00;17.0;95.8
49901;DHT22;35789;48.414;12.768;2023-07-09T00:05:00;17.0;95.3
49901;DHT22;35789;48.414;12.768;2023-07-09T00:10:00;16.9;95.2
49901;DHT22;35789;48.414;12.768;2023-07-09T00:15:00;16.8;95.7
49901;DHT22;35789;48.414;12.768;2023-07-09T00:20:00;16.7;95.9
49901;DHT22;35789;48.414;12.768;2023-07-09T00:25:00;16.7;95.9
49901;DHT22;35789;48.414;12.768;2023-07-09T00:30:00;16.7;96.0
49901;DHT22;35789;48.414;12.768;2023-07-09T00:35:00;16.7;95.9
49901;DHT22;35789;48.414;12.768;2023-07-09T00:40:01;16.7;96.1
49901;DHT22;35789;48.414;12.768;2023-07-09T00:45:00;16.6;96.0
49901;DHT22;35789;48.414;12.768;2023-07-09T00:55:00;16.5;96.4
49901;DHT22;35789;48.414;12.768;2023-07-09T01:00:01;16.5;96.3
49901;DHT22;35789;48.414;12.768;2023-07-09T01:05:00;16.4;96.7
49901;DHT22;35789;48.414;12.768;2023-07-09T01:10:00;16.4;96.8
49901;DHT22;35789;48.414;12.768;2023-07-09T01:15:00;16.4;96.8
49901;DHT22;35789;48.414;12.768;2023-07-09T01:20:00;16.3;96.7
49901;DHT22;35789;48.414;12.768;2023-07-09T01:25:00;16.2;96.5
49901;DHT22;35789;48.414;12.768;2023-07-09T01:30:00;16.2;97.1
49901;DHT22;35789;48.414;12.768;2023-07-09T01:35:01;16.2;97.7
49901;DHT22;35789;48.414;12.768;2023-07-09T01:40:00;16.2;97.3
49901;DHT22;35789;48.414;12.768;2023-07-09T01:45:00;16.2;97.6
49901;DHT22;35789;48.414;12.768;2023-07-09T01:50:00;16.1;96.9
49901;DHT22;35789;48.414;12.768;2023-07-09T01:55:00;16.0;96.9
49901;DHT22;35789;48.414;12.768;2023-07-09T02:00:02;15.9;97.0
49901;DHT22;35789;48.414;12.768;2023-07-09T02:05:00;15.9;97.3
49901;DHT22;35789;48.414;12.768;2023-07-09T02:10:00;15.9;97.8
49901;DHT22;35789;48.414;12.768;2023-07-09T02:15:00;15.8;97.5
49901;DHT22;35789;48.414;12.768;2023-07-09T02:20:00;15.7;97.3
49901;DHT22;35789;48.414;12.768;2023-07-09T02:25:00;15.7;97.4
49901;DHT22;35789;48.414;12.768;2023-07-09T02:30:00;15.6;97.3
49901;DHT22;35789;48.414;12.768;2023-07-09T02:35:00;15.5;97.1
49901;DHT22;35789;48.414;12.768;2023-07-09T02:40:00;15.5;97.4
49901;DHT22;35789;48.414;12.768;2023-07-09T02:45:00;15.4;97.5
49901;DHT22;35789;48.414;12.768;2023-07-09T02:50:00;15.4;98.0
49901;DHT22;35789;48.414;12.768;2023-07-09T02:55:00;15.5;97.9
49901;DHT22;35789;48.414;12.768;2023-07-09T03:00:00;15.4;97.5
49901;DHT22;35789;48.414;12.768;2023-07-09T03:05:00;15.3;97.4
49901;DHT22;35789;48.414;12.768;2023-07-09T03:10:00;15.3;97.8
49901;DHT22;35789;48.414;12.768;2023-07-09T03:15:00;15.3;98.1
49901;DHT22;35789;48.414;12.768;2023-07-09T03:20:00;15.2;98.1
49901;DHT22;35789;48.414;12.768;2023-07-09T03:25:00;15.0;98.0
49901;DHT22;35789;48.414;12.768;2023-07-09T03:30:00;15.1;98.1
49901;DHT22;35789;48.414;12.768;2023-07-09T03:35:00;15.2;98.4
49901;DHT22;35789;48.414;12.768;2023-07-09T03:40:00;15.1;98.2
49901;DHT22;35789;48.414;12.768;2023-07-09T03:45:00;15.1;98.0
49901;DHT22;35789;48.414;12.768;2023-07-09T03:50:00;15.1;98.0
49901;DHT22;35789;48.414;12.768;2023-07-09T03:55:00;15.1;97.9
49901;DHT22;35789;48.414;12.768;2023-07-09T04:00:00;15.0;98.2
49901;DHT22;35789;48.414;12.768;2023-07-09T04:05:00;15.1;98.1
49901;DHT22;35789;48.414;12.768;2023-07-09T04:10:00;15.1;99.0
49901;DHT22;35789;48.414;12.768;2023-07-09T04:15:00;15.1;98.5
49901;DHT22;35789;48.414;12.768;2023-07-09T04:20:00;15.1;98.4
49901;DHT22;35789;48.414;12.768;2023-07-09T04:25:00;15.1;98.7
49901;DHT22;35789;48.414;12.768;2023-07-09T04:30:00;15.2;98.8
49901;DHT22;35789;48.414;12.768;2023-07-09T04:35:00;15.1;98.4
49901;DHT22;35789;48.414;12.768;2023-07-09T04:40:00;15.2;98.7
49901;DHT22;35789;48.414;12.768;2023-07-09T04:45:00;15.3;98.8
49901;DHT22;35789;48.414;12.768;2023-07-09T04:50:01;15.3;98.8
49901;DHT22;35789;48.414;12.768;2023-07-09T04:55:00;15.4;99.1
49901;DHT22;35789;48.414;12.768;2023-07-09T05:00:00;15.6;98.9
49901;DHT22;35789;48.414;12.768;2023-07-09T05:05:00;15.7;99.2
49901;DHT22;35789;48.414;12.768;2023-07-09T05:10:00;15.8;99.1
49901;DHT22;35789;48.414;12.768;2023-07-09T05:15:00;15.9;99.7
49901;DHT22;35789;48.414;12.768;2023-07-09T05:20:00;16.0;99.5
49901;DHT22;35789;48.414;12.768;2023-07-09T05:25:00;16.1;99.7
49901;DHT22;35789;48.414;12.768;2023-07-09T05:30:00;16.2;99.9
49901;DHT22;35789;48.414;12.768;2023-07-09T05:35:00;16.3;99.9
49901;DHT22;35789;48.414;12.768;2023-07-09T05:40:00;16.5;99.9
49901;DHT22;35789;48.414;12.768;2023-07-09T05:45:00;16.6;99.9
49901;DHT22;35789;48.414;12.768;2023-07-09T05:50:00;16.7;99.9
49901;DHT22;35789;48.414;12.768;2023-07-09T05:55:00;16.8;99.9
49901;DHT22;35789;48.414;12.768;2023-07-09T06:00:00;17.0;99.9
49901;DHT22;35789;48.414;12.768;2023-07-09T06:05:00;17.1;99.9
49901;DHT22;35789;48.414;12.768;2023-07-09T06:10:00;17.3;99.9
49901;DHT22;35789;48.414;12.768;2023-07-09T06:15:00;17.4;99.9
49901;DHT22;35789;48.414;12.768;2023-07-09T06:20:00;17.6;99.9
49901;DHT22;35789;48.414;12.768;2023-07-09T06:25:00;17.8;99.9
49901;DHT22;35789;48.414;12.768;2023-07-09T06:30:00;17.9;99.9
49901;DHT22;35789;48.414;12.768;2023-07-09T06:35:00;18.1;99.9
49901;DHT22;35789;48.414;12.768;2023-07-09T06:40:00;18.2;99.8
49901;DHT22;35789;48.414;12.768;2023-07-09T06:45:00;18.4;99.9
49901;DHT22;35789;48.414;12.768;2023-07-09T06:50:00;18.6;99.2
49901;DHT22;35789;48.414;12.768;2023-07-09T06:55:00;18.8;99.1
49901;DHT22;35789;48.414;12.768;2023-07-09T07:00:00;19.2;98.1
49901;DHT22;35789;48.414;12.768;2023-07-09T07:05:00;19.4;98.2
49901;DHT22;35789;48.414;12.768;2023-07-09T07:10:00;19.7;96.9
49901;DHT22;35789;48.414;12.768;2023-07-09T07:15:00;19.8;96.8
49901;DHT22;35789;48.414;12.768;2023-07-09T07:20:00;20.0;96.8
49901;DHT22;35789;48.414;12.768;2023-07-09T07:25:00;20.2;95.9
49901;DHT22;35789;48.414;12.768;2023-07-09T07:30:00;20.3;96.1
49901;DHT22;35789;48.414;12.768;2023-07-09T07:35:00;20.4;95.5
49901;DHT22;35789;48.414;12.768;2023-07-09T07:40:00;20.8;95.1
49901;DHT22;35789;48.414;12.768;2023-07-09T07:45:00;21.1;94.2
49901;DHT22;35789;48.414;12.768;2023-07-09T07:50:00;21.1;94.8
49901;DHT22;35789;48.414;12.768;2023-07-09T07:55:00;21.2;94.7
49901;DHT22;35789;48.414;12.768;2023-07-09T08:00:00;21.3;94.0
49901;DHT22;35789;48.414;12.768;2023-07-09T08:05:00;21.4;94.8
49901;DHT22;35789;48.414;12.768;2023-07-09T08:10:00;21.4;94.8
49901;DHT22;35789;48.414;12.768;2023-07-09T08:15:00;21.6;95.0
49901;DHT22;35789;48.414;12.768;2023-07-09T08:20:00;21.9;94.5
49901;DHT22;35789;48.414;12.768;2023-07-09T08:25:00;22.1;93.8
49901;DHT22;35789;48.414;12.768;2023-07-09T08:30:00;22.2;93.2
49901;DHT22;35789;48.414;12.768;2023-07-09T08:35:00;22.5;91.5
49901;DHT22;35789;48.414;12.768;2023-07-09T08:40:00;23.0;91.2
49901;DHT22;35789;48.414;12.768;2023-07-09T08:45:03;23.6;91.8
49901;DHT22;35789;48.414;12.768;2023-07-09T08:50:00;24.1;90.2
49901;DHT22;35789;48.414;12.768;2023-07-09T08:55:01;24.1;90.6
49901;DHT22;35789;48.414;12.768;2023-07-09T09:00:02;24.1;90.5
49901;DHT22;35789;48.414;12.768;2023-07-09T09:05:00;24.3;85.4
49901;DHT22;35789;48.414;12.768;2023-07-09T09:10:01;24.7;85.9
49901;DHT22;35789;48.414;12.768;2023-07-09T09:15:01;24.7;83.0
49901;DHT22;35789;48.414;12.768;2023-07-09T09:20:01;25.4;77.0
49901;DHT22;35789;48.414;12.768;2023-07-09T09:25:02;25.7;78.8
49901;DHT22;35789;48.414;12.768;2023-07-09T09:30:00;25.6;79.2
49901;DHT22;35789;48.414;12.768;2023-07-09T09:35:10;25.2;78.3
49901;DHT22;35789;48.414;12.768;2023-07-09T09:40:00;25.3;78.0
49901;DHT22;35789;48.414;12.768;2023-07-09T09:45:00;25.1;77.5
49901;DHT22;35789;48.414;12.768;2023-07-09T09:50:00;25.1;76.9
49901;DHT22;35789;48.414;12.768;2023-07-09T09:55:02;25.3;74.2
49901;DHT22;35789;48.414;12.768;2023-07-09T10:00:00;25.9;75.7
49901;DHT22;35789;48.414;12.768;2023-07-09T10:05:00;26.2;71.7
49901;DHT22;35789;48.414;12.768;2023-07-09T10:10:00;26.2;72.6
49901;DHT22;35789;48.414;12.768;2023-07-09T10:15:01;26.5;69.6
49901;DHT22;35789;48.414;12.768;2023-07-09T10:20:02;26.9;68.1
49901;DHT22;35789;48.414;12.768;2023-07-09T10:25:01;27.3;70.6
49901;DHT22;35789;48.414;12.768;2023-07-09T10:30:03;27.2;67.7
49901;DHT22;35789;48.414;12.768;2023-07-09T10:35:00;27.5;65.7
49901;DHT22;35789;48.414;12.768;2023-07-09T10:40:00;27.8;69.6
49901;DHT22;35789;48.414;12.768;2023-07-09T10:45:01;28.4;63.0
49901;DHT22;35789;48.414;12.768;2023-07-09T10:50:00;28.5;66.4
49901;DHT22;35789;48.414;12.768;2023-07-09T10:55:02;29.3;66.5
49901;DHT22;35789;48.414;12.768;2023-07-09T11:00:00;29.5;64.2
49901;DHT22;35789;48.414;12.768;2023-07-09T11:05:00;30.1;61.3
49901;DHT22;35789;48.414;12.768;2023-07-09T11:10:01;29.9;63.4
49901;DHT22;35789;48.414;12.768;2023-07-09T11:15:01;29.7;59.5
49901;DHT22;35789;48.414;12.768;2023-07-09T11:20:05;30.4;62.7
49901;DHT22;35789;48.414;12.768;2023-07-09T11:25:05;30.5;62.4
49901;DHT22;35789;48.414;12.768;2023-07-09T11:30:01;30.8;58.9
49901;DHT22;35789;48.414;12.768;2023-07-09T11:35:08;31.1;62.4
49901;DHT22;35789;48.414;12.768;2023-07-09T11:40:04;31.4;63.2
49901;DHT22;35789;48.414;12.768;2023-07-09T11:45:02;31.7;59.3
49901;DHT22;35789;48.414;12.768;2023-07-09T11:50:00;32.1;58.7
49901;DHT22;35789;48.414;12.768;2023-07-09T11:55:02;32.3;60.2
49901;DHT22;35789;48.414;12.768;2023-07-09T12:00:00;32.5;58.2
49901;DHT22;35789;48.414;12.768;2023-07-09T12:05:00;32.4;59.8
49901;DHT22;35789;48.414;12.768;2023-07-09T12:10:00;32.2;58.5
49901;DHT22;35789;48.414;12.768;2023-07-09T12:15:04;32.0;61.7
49901;DHT22;35789;48.414;12.768;2023-07-09T12:20:00;32.0;58.8
49901;DHT22;35789;48.414;12.768;2023-07-09T12:25:00;32.0;57.9
49901;DHT22;35789;48.414;12.768;2023-07-09T12:30:00;32.1;56.3
49901;DHT22;35789;48.414;12.768;2023-07-09T12:35:00;32.3;60.3
49901;DHT22;35789;48.414;12.768;2023-07-09T12:40:00;32.6;55.7
49901;DHT22;35789;48.414;12.768;2023-07-09T12:45:00;33.1;59.0
49901;DHT22;35789;48.414;12.768;2023-07-09T12:50:00;33.5;55.3
49901;DHT22;35789;48.414;12.768;2023-07-09T12:55:01;33.8;53.3
49901;DHT22;35789;48.414;12.768;2023-07-09T13:00:00;33.5;55.6
49901;DHT22;35789;48.414;12.768;2023-07-09T13:05:00;33.3;57.6
49901;DHT22;35789;48.414;12.768;2023-07-09T13:10:04;32.9;57.1
49901;DHT22;35789;48.414;12.768;2023-07-09T13:15:00;32.2;57.0
49901;DHT22;35789;48.414;12.768;2023-07-09T13:20:00;31.7;54.7
49901;DHT22;35789;48.414;12.768;2023-07-09T13:25:00;31.2;56.8
49901;DHT22;35789;48.414;12.768;2023-07-09T13:30:00;30.8;58.8
49901;DHT22;35789;48.414;12.768;2023-07-09T13:35:00;30.7;59.9
49901;DHT22;35789;48.414;12.768;2023-07-09T13:40:00;30.4;58.4
49901;DHT22;35789;48.414;12.768;2023-07-09T13:45:00;30.2;57.4
49901;DHT22;35789;48.414;12.768;2023-07-09T13:50:00;30.2;55.3
49901;DHT22;35789;48.414;12.768;2023-07-09T13:55:00;30.1;59.4
49901;DHT22;35789;48.414;12.768;2023-07-09T14:00:00;30.2;61.6
49901;DHT22;35789;48.414;12.768;2023-07-09T14:05:01;30.3;59.6
49901;DHT22;35789;48.414;12.768;2023-07-09T14:10:00;30.3;56.6
49901;DHT22;35789;48.414;12.768;2023-07-09T14:15:00;30.3;57.9
49901;DHT22;35789;48.414;12.768;2023-07-09T14:20:00;30.1;55.2
49901;DHT22;35789;48.414;12.768;2023-07-09T14:25:00;30.2;58.2
49901;DHT22;35789;48.414;12.768;2023-07-09T14:30:00;30.1;59.0
49901;DHT22;35789;48.414;12.768;2023-07-09T14:35:00;30.4;60.5
49901;DHT22;35789;48.414;12.768;2023-07-09T14:40:00;30.1;61.4
49901;DHT22;35789;48.414;12.768;2023-07-09T14:45:00;30.1;56.6
49901;DHT22;35789;48.414;12.768;2023-07-09T14:50:00;30.0;58.6
49901;DHT22;35789;48.414;12.768;2023-07-09T14:55:00;29.7;58.9
49901;DHT22;35789;48.414;12.768;2023-07-09T15:00:00;29.4;60.0
49901;DHT22;35789;48.414;12.768;2023-07-09T15:05:00;29.2;60.9
49901;DHT22;35789;48.414;12.768;2023-07-09T15:10:00;29.1;61.3
49901;DHT22;35789;48.414;12.768;2023-07-09T15:15:01;29.0;61.4
49901;DHT22;35789;48.414;12.768;2023-07-09T15:20:00;29.2;58.4
49901;DHT22;35789;48.414;12.768;2023-07-09T15:25:00;29.2;58.4
49901;DHT22;35789;48.414;12.768;2023-07-09T15:30:00;29.3;58.6
49901;DHT22;35789;48.414;12.768;2023-07-09T15:35:00;29.2;60.1
49901;DHT22;35789;48.414;12.768;2023-07-09T15:40:00;29.1;59.0
49901;DHT22;35789;48.414;12.768;2023-07-09T15:45:00;29.1;59.5
49901;DHT22;35789;48.414;12.768;2023-07-09T15:50:00;29.0;58.7
49901;DHT22;35789;48.414;12.768;2023-07-09T15:55:00;29.2;59.1
49901;DHT22;35789;48.414;12.768;2023-07-09T16:00:00;29.2;58.6
49901;DHT22;35789;48.414;12.768;2023-07-09T16:05:00;29.0;61.7
49901;DHT22;35789;48.414;12.768;2023-07-09T16:10:00;29.1;59.5
49901;DHT22;35789;48.414;12.768;2023-07-09T16:15:00;29.1;57.0
49901;DHT22;35789;48.414;12.768;2023-07-09T16:20:00;29.0;57.3
49901;DHT22;35789;48.414;12.768;2023-07-09T16:25:00;28.9;59.3
49901;DHT22;35789;48.414;12.768;2023-07-09T16:30:00;28.8;60.5
49901;DHT22;35789;48.414;12.768;2023-07-09T16:35:00;28.5;59.1
49901;DHT22;35789;48.414;12.768;2023-07-09T16:40:00;28.6;60.2
49901;DHT22;35789;48.414;12.768;2023-07-09T16:45:00;28.5;62.4
49901;DHT22;35789;48.414;12.768;2023-07-09T16:50:00;28.2;64.1
49901;DHT22;35789;48.414;12.768;2023-07-09T16:55:00;28.3;62.5
49901;DHT22;35789;48.414;12.768;2023-07-09T17:00:12;28.0;62.0
49901;DHT22;35789;48.414;12.768;2023-07-09T17:05:00;27.8;69.3
49901;DHT22;35789;48.414;12.768;2023-07-09T17:10:00;27.5;72.1
49901;DHT22;35789;48.414;12.768;2023-07-09T17:15:00;27.2;70.8
49901;DHT22;35789;48.414;12.768;2023-07-09T17:20:00;27.2;71.3
49901;DHT22;35789;48.414;12.768;2023-07-09T17:25:00;27.2;69.2
49901;DHT22;35789;48.414;12.768;2023-07-09T17:30:00;27.1;73.4
49901;DHT22;35789;48.414;12.768;2023-07-09T17:35:00;26.9;74.2
49901;DHT22;35789;48.414;12.768;2023-07-09T17:40:00;26.9;72.9
49901;DHT22;35789;48.414;12.768;2023-07-09T17:45:00;26.7;74.2
49901;DHT22;35789;48.414;12.768;2023-07-09T17:50:00;26.5;72.9
49901;DHT22;35789;48.414;12.768;2023-07-09T17:55:00;26.4;72.3
49901;DHT22;35789;48.414;12.768;2023-07-09T18:00:00;26.2;78.1
49901;DHT22;35789;48.414;12.768;2023-07-09T18:05:00;26.0;80.3
49901;DHT22;35789;48.414;12.768;2023-07-09T18:10:00;25.7;83.6
49901;DHT22;35789;48.414;12.768;2023-07-09T18:15:00;25.4;82.8
49901;DHT22;35789;48.414;12.768;2023-07-09T18:20:00;25.3;78.8
49901;DHT22;35789;48.414;12.768;2023-07-09T18:25:00;25.2;79.2
49901;DHT22;35789;48.414;12.768;2023-07-09T18:30:00;25.1;78.4
49901;DHT22;35789;48.414;12.768;2023-07-09T18:35:00;25.0;79.4
49901;DHT22;35789;48.414;12.768;2023-07-09T18:40:00;24.8;79.1
49901;DHT22;35789;48.414;12.768;2023-07-09T18:45:00;24.6;80.3
49901;DHT22;35789;48.414;12.768;2023-07-09T18:50:00;24.5;81.9
49901;DHT22;35789;48.414;12.768;2023-07-09T18:55:00;24.3;82.3
49901;DHT22;35789;48.414;12.768;2023-07-09T19:00:00;24.1;81.7
49901;DHT22;35789;48.414;12.768;2023-07-09T19:05:00;23.9;82.9
49901;DHT22;35789;48.414;12.768;2023-07-09T19:10:00;23.7;83.7
49901;DHT22;35789;48.414;12.768;2023-07-09T19:15:00;23.5;85.0
49901;DHT22;35789;48.414;12.768;2023-07-09T19:20:00;23.3;85.9
49901;DHT22;35789;48.414;12.768;2023-07-09T19:25:00;23.1;85.8
49901;DHT22;35789;48.414;12.768;2023-07-09T19:30:00;22.9;84.8
49901;DHT22;35789;48.414;12.768;2023-07-09T19:35:00;22.8;85.5
49901;DHT22;35789;48.414;12.768;2023-07-09T19:40:00;22.6;86.3
49901;DHT22;35789;48.414;12.768;2023-07-09T19:45:00;22.5;86.3
49901;DHT22;35789;48.414;12.768;2023-07-09T19:50:00;22.4;87.2
49901;DHT22;35789;48.414;12.768;2023-07-09T19:55:00;22.1;88.1
49901;DHT22;35789;48.414;12.768;2023-07-09T20:00:00;22.0;88.8
49901;DHT22;35789;48.414;12.768;2023-07-09T20:05:00;21.9;88.2
49901;DHT22;35789;48.414;12.768;2023-07-09T20:10:00;21.8;88.4
49901;DHT22;35789;48.414;12.768;2023-07-09T20:15:00;21.6;89.0
49901;DHT22;35789;48.414;12.768;2023-07-09T20:20:00;21.5;89.8
49901;DHT22;35789;48.414;12.768;2023-07-09T20:25:00;21.4;89.9
49901;DHT22;35789;48.414;12.768;2023-07-09T20:30:00;21.3;89.2
49901;DHT22;35789;48.414;12.768;2023-07-09T20:35:00;21.1;89.7
49901;DHT22;35789;48.414;12.768;2023-07-09T20:40:00;21.0;90.3
49901;DHT22;35789;48.414;12.768;2023-07-09T20:45:00;20.9;89.8
49901;DHT22;35789;48.414;12.768;2023-07-09T20:50:00;20.7;89.7
49901;DHT22;35789;48.414;12.768;2023-07-09T20:55:00;20.5;90.2
49901;DHT22;35789;48.414;12.768;2023-07-09T21:00:00;20.4;90.5
49901;DHT22;35789;48.414;12.768;2023-07-09T21:05:00;20.3;90.5
49901;DHT22;35789;48.414;12.768;2023-07-09T21:10:00;20.2;90.9
49901;DHT22;35789;48.414;12.768;2023-07-09T21:15:00;20.1;90.8
49901;DHT22;35789;48.414;12.768;2023-07-09T21:20:00;20.1;91.2
49901;DHT22;35789;48.414;12.768;2023-07-09T21:25:01;19.8;91.4
49901;DHT22;35789;48.414;12.768;2023-07-09T21:30:00;19.7;91.9
49901;DHT22;35789;48.414;12.768;2023-07-09T21:35:00;19.7;91.6
49901;DHT22;35789;48.414;12.768;2023-07-09T21:40:00;19.6;91.5
49901;DHT22;35789;48.414;12.768;2023-07-09T21:45:00;19.5;91.0
49901;DHT22;35789;48.414;12.768;2023-07-09T21:50:00;19.5;91.7
49901;DHT22;35789;48.414;12.768;2023-07-09T21:55:00;19.4;91.9
49901;DHT22;35789;48.414;12.768;2023-07-09T22:00:00;19.3;91.6
49901;DHT22;35789;48.414;12.768;2023-07-09T22:05:00;19.2;92.0
49901;DHT22;35789;48.414;12.768;2023-07-09T22:10:00;19.1;92.2
49901;DHT22;35789;48.414;12.768;2023-07-09T22:15:01;18.9;92.2
49901;DHT22;35789;48.414;12.768;2023-07-09T22:20:00;18.9;92.0
49901;DHT22;35789;48.414;12.768;2023-07-09T22:25:00;18.8;92.0
49901;DHT22;35789;48.414;12.768;2023-07-09T22:30:00;18.8;92.5
49901;DHT22;35789;48.414;12.768;2023-07-09T22:35:00;18.8;92.5
49901;DHT22;35789;48.414;12.768;2023-07-09T22:40:05;18.7;91.8
49901;DHT22;35789;48.414;12.768;2023-07-09T22:45:00;18.7;92.4
49901;DHT22;35789;48.414;12.768;2023-07-09T22:50:00;18.6;92.2
49901;DHT22;35789;48.414;12.768;2023-07-09T22:55:00;18.5;92.8
49901;DHT22;35789;48.414;12.768;2023-07-09T23:00:00;18.4;92.7
49901;DHT22;35789;48.414;12.768;2023-07-09T23:05:00;18.4;93.1
49901;DHT22;35789;48.414;12.768;2023-07-09T23:10:00;18.4;92.9
49901;DHT22;35789;48.414;12.768;2023-07-09T23:15:00;18.3;93.6
49901;DHT22;35789;48.414;12.768;2023-07-09T23:20:00;18.2;93.3
49901;DHT22;35789;48.414;12.768;2023-07-09T23:25:00;18.1;93.3
49901;DHT22;35789;48.414;12.768;2023-07-09T23:30:00;18.1;93.5
49901;DHT22;35789;48.414;12.768;2023-07-09T23:35:00;18.1;93.4
49901;DHT22;35789;48.414;12.768;2023-07-09T23:40:00;18.0;93.6
49901;DHT22;35789;48.414;12.768;2023-07-09T23:45:00;17.9;93.6
49901;DHT22;35789;48.414;12.768;2023-07-09T23:50:00;17.9;93.6
49901;DHT22;35789;48.414;12.768;2023-07-09T23:55:00;17.8;93.5
